Time;durP1;ratioP1;P1;durP2;ratioP2;P2;SDS_P1;SDS_P2;PMS_P1;PMS_P2;Temp;Humidity;BMP_temperature;BMP_pressure;BME280_temperature;BME280_humidity;BME280_pressure;Samples;Min_cycle;Max_cycle;Signal;HPM_P1;HPM_P2
2022/08/12 00:43:15;;;;;;;8.73;2.20;;;;;;;17.51;100.00;100027.03;5171894;27;20079;-55
2022/08/12 00:48:25;;;;;;;2.92;1.90;;;;;;;17.53;100.00;100022.69;5170956;27;20564;-56
2022/08/12 00:50:55;;;;;;;2.85;2.40;;;;;;;17.43;100.00;100073.34;5171668;27;20523;-55
2022/08/12 00:53:21;;;;;;;5.57;2.33;;;;;;;17.42;100.00;100105.00;5171691;27;20137;-55
2022/08/12 00:55:51;;;;;;;3.85;2.42;;;;;;;17.32;100.00;100117.59;5171469;27;20145;-55
2022/08/12 00:58:24;;;;;;;2.20;2.10;;;;;;;17.14;100.00;100127.81;5171517;27;20137;-55
2022/08/12 01:00:51;;;;;;;3.95;2.00;;;;;;;17.10;100.00;100155.50;5171940;27;20065;-54
2022/08/12 01:03:19;;;;;;;2.53;2.20;;;;;;;17.19;100.00;100188.38;5171768;27;20086;-56
2022/08/12 01:11:28;;;;;;;4.05;2.38;;;;;;;16.97;100.00;100233.75;5137454;27;20050;-55
2022/08/12 01:13:56;;;;;;;2.47;2.28;;;;;;;17.10;100.00;100243.34;5174921;27;20058;-55
2022/08/12 01:16:22;;;;;;;5.68;2.20;;;;;;;16.92;100.00;100196.88;5174818;27;20097;-55
2022/08/12 01:18:51;;;;;;;3.35;2.60;;;;;;;17.02;100.00;100200.13;5174917;27;20098;-55
2022/08/12 01:21:33;;;;;;;3.38;2.35;;;;;;;17.12;100.00;100197.44;5174685;27;20050;-55
2022/08/12 01:24:22;;;;;;;4.50;2.42;;;;;;;17.05;100.00;100186.31;5174974;27;20077;-54
2022/08/12 01:26:53;;;;;;;2.53;2.33;;;;;;;17.13;100.00;100187.97;5174783;27;20424;-55
2022/08/12 01:29:25;;;;;;;2.65;2.10;;;;;;;17.01;100.00;100181.94;5175343;27;20087;-55
2022/08/12 01:31:56;;;;;;;3.58;2.00;;;;;;;17.03;100.00;100198.97;5174581;27;20520;-55
2022/08/12 01:34:28;;;;;;;2.72;2.53;;;;;;;16.85;100.00;100265.25;5174819;27;20057;-55
2022/08/12 01:36:56;;;;;;;4.50;2.33;;;;;;;16.74;100.00;100253.28;5174786;27;20053;-55
2022/08/12 01:39:32;;;;;;;5.35;2.30;;;;;;;16.66;100.00;100269.81;5174787;27;20050;-54
2022/08/12 01:42:04;;;;;;;6.07;2.40;;;;;;;16.80;100.00;100258.13;5174572;27;20058;-53
2022/08/12 01:44:33;;;;;;;2.28;2.10;;;;;;;16.78;100.00;100259.66;5174416;27;20554;-55
2022/08/12 01:47:09;;;;;;;2.95;2.25;;;;;;;16.90;100.00;100248.31;5174923;27;20117;-55
2022/08/12 01:49:49;;;;;;;4.93;2.10;;;;;;;16.80;100.00;100262.84;5174488;27;20042;-55
2022/08/12 01:52:27;;;;;;;2.63;2.42;;;;;;;16.82;100.00;100252.19;5174610;27;20042;-55
2022/08/12 01:54:55;;;;;;;6.53;2.67;;;;;;;16.83;100.00;100271.19;5174750;27;20593;-56
2022/08/12 01:57:26;;;;;;;2.60;2.40;;;;;;;16.78;100.00;100267.97;5174242;27;20085;-54
2022/08/12 01:59:58;;;;;;;2.78;2.30;;;;;;;16.78;100.00;100271.53;5174453;27;20089;-55
2022/08/12 02:02:33;;;;;;;6.35;2.60;;;;;;;16.71;100.00;100280.53;5174469;27;20087;-55
2022/08/12 02:11:16;;;;;;;3.42;2.30;;;;;;;16.84;100.00;100224.91;5174275;27;20087;-56
2022/08/12 02:14:19;;;;;;;5.05;2.83;;;;;;;16.85;100.00;100243.91;5174307;27;20050;-54
2022/08/12 02:16:57;;;;;;;2.80;2.22;;;;;;;16.56;100.00;100272.44;5174065;27;20042;-55
2022/08/12 02:19:47;;;;;;;8.50;2.88;;;;;;;16.63;100.00;100283.63;5172680;27;20054;-55
2022/08/12 02:22:26;;;;;;;4.13;2.08;;;;;;;16.48;100.00;100299.25;5174114;27;20054;-56
2022/08/12 02:24:55;;;;;;;6.53;2.80;;;;;;;16.62;100.00;100298.63;5173785;27;20061;-55
2022/08/12 02:27:26;;;;;;;2.65;2.45;;;;;;;16.49;100.00;100328.50;5174163;27;20397;-55
2022/08/12 02:29:53;;;;;;;2.97;2.25;;;;;;;16.34;100.00;100316.47;5173705;27;20050;-56
2022/08/12 02:32:20;;;;;;;4.28;2.70;;;;;;;16.33;100.00;100350.88;5174054;27;20053;-55
2022/08/12 02:34:47;;;;;;;2.95;2.13;;;;;;;16.45;100.00;100347.84;5173627;27;20107;-55
2022/08/12 02:37:15;;;;;;;2.58;2.38;;;;;;;16.31;100.00;100355.19;5173851;27;20081;-55
2022/08/12 02:39:47;;;;;;;2.85;2.13;;;;;;;16.35;100.00;100331.91;5173454;27;20050;-56
2022/08/12 02:42:16;;;;;;;2.45;2.25;;;;;;;16.28;100.00;100358.69;5173473;27;20144;-55
2022/08/12 02:44:47;;;;;;;2.83;2.42;;;;;;;16.27;100.00;100363.44;5173476;27;20537;-55
2022/08/12 02:47:17;;;;;;;5.35;2.47;;;;;;;16.07;100.00;100381.31;5173557;27;20050;-54
2022/08/12 02:49:49;;;;;;;2.55;2.35;;;;;;;16.35;100.00;100387.25;5173541;27;20500;-56
2022/08/12 02:52:16;;;;;;;2.08;1.98;;;;;;;16.20;100.00;100380.72;5173183;27;20050;-54
2022/08/12 02:54:48;;;;;;;3.60;2.17;;;;;;;16.35;100.00;100353.25;5173690;27;20413;-55
2022/08/12 02:57:19;;;;;;;3.22;2.10;;;;;;;16.17;100.00;100353.00;5173138;27;20071;-54
2022/08/12 02:59:47;;;;;;;8.05;2.35;;;;;;;16.20;100.00;100355.81;5173463;27;20060;-55
2022/08/12 03:02:19;;;;;;;2.60;2.40;;;;;;;16.50;100.00;100348.72;5173309;27;20528;-56
2022/08/12 03:04:50;;;;;;;9.23;2.40;;;;;;;16.44;100.00;100332.41;5173023;27;20086;-54
2022/08/12 03:07:27;;;;;;;6.43;2.67;;;;;;;16.42;100.00;100345.03;5173132;27;20054;-54
2022/08/12 03:10:01;;;;;;;2.80;2.20;;;;;;;16.35;100.00;100356.81;5173001;27;20417;-55
2022/08/12 03:12:30;;;;;;;2.50;2.10;;;;;;;16.41;100.00;100368.34;5173495;27;20117;-55
2022/08/12 03:14:58;;;;;;;2.97;2.47;;;;;;;16.69;100.00;100318.06;5173088;27;20046;-55
2022/08/12 03:17:29;;;;;;;5.15;2.15;;;;;;;16.77;100.00;100294.88;5172848;27;20042;-55
2022/08/12 03:19:56;;;;;;;2.53;1.98;;;;;;;16.87;100.00;100254.63;5172828;27;20480;-55
2022/08/12 03:22:23;;;;;;;5.07;2.17;;;;;;;17.11;100.00;100261.56;5173330;27;20132;-54
2022/08/12 03:24:50;;;;;;;3.05;1.92;;;;;;;17.59;100.00;100181.94;5173068;27;20100;-55
2022/08/12 03:27:17;;;;;;;3.03;2.20;;;;;;;17.93;100.00;100000.63;5172793;27;20520;-54
2022/08/12 03:29:46;;;;;;;2.95;2.17;;;;;;;18.47;100.00;99824.53;5172476;27;20141;-55
2022/08/12 03:32:13;;;;;;;2.60;2.40;;;;;;;18.72;100.00;99568.94;5172593;27;20054;-55
2022/08/12 03:34:42;;;;;;;4.28;1.80;;;;;;;19.34;100.00;99466.28;5172892;27;20140;-55
2022/08/12 03:37:10;;;;;;;4.57;2.58;;;;;;;19.62;100.00;99337.16;5172533;27;20052;-55
2022/08/12 03:39:43;;;;;;;5.78;2.05;;;;;;;19.56;100.00;99297.94;5172691;27;20497;-55
2022/08/12 03:42:21;;;;;;;2.37;2.17;;;;;;;20.15;100.00;99187.97;5172581;27;20050;-57
2022/08/12 04:01:39;;;;;;;3.00;2.10;;;;;;;21.14;100.00;98972.31;5172447;27;20090;-56
2022/08/12 04:04:07;;;;;;;2.45;2.05;;;;;;;21.88;100.00;98962.97;5172242;27;20138;-57
2022/08/12 04:06:40;;;;;;;3.45;2.30;;;;;;;22.03;100.00;98963.34;5172501;27;20077;-56
2022/08/12 04:09:06;;;;;;;4.53;2.05;;;;;;;21.11;100.00;98970.41;5172265;27;20056;-55
2022/08/12 04:14:22;;;;;;;5.25;1.83;;;;;;;22.48;100.00;98979.03;5172860;27;20102;-56
2022/08/12 04:16:49;;;;;;;2.83;2.10;;;;;;;22.26;100.00;98992.94;5171932;27;20054;-57
2022/08/12 04:19:17;;;;;;;3.58;1.88;;;;;;;22.43;100.00;98977.59;5172449;27;20057;-57
2022/08/12 04:21:44;;;;;;;4.82;2.00;;;;;;;22.31;100.00;98995.16;5172145;27;20500;-57
2022/08/12 04:24:11;;;;;;;3.08;2.28;;;;;;;22.91;100.00;98997.13;5172621;27;20050;-57
2022/08/12 04:26:38;;;;;;;4.75;1.73;;;;;;;23.05;100.00;99030.19;5172213;27;20077;-57
2022/08/12 04:29:05;;;;;;;5.05;1.73;;;;;;;22.89;100.00;99047.09;5172468;27;20346;-57
2022/08/12 04:31:32;;;;;;;3.38;2.42;;;;;;;23.85;100.00;99096.88;5172135;27;20046;-57
2022/08/12 04:33:58;;;;;;;2.67;2.00;;;;;;;23.79;100.00;99137.09;5172254;27;20094;-57
2022/08/12 04:36:25;;;;;;;2.53;1.80;;;;;;;24.18;100.00;99144.81;5171940;27;20054;-57
2022/08/12 04:38:52;;;;;;;4.85;2.05;;;;;;;24.06;100.00;99159.72;5171825;27;20458;-57
2022/08/12 04:41:19;;;;;;;2.45;2.00;;;;;;;23.84;100.00;99120.50;5171878;27;20045;-57
2022/08/12 04:43:46;;;;;;;3.28;1.80;;;;;;;23.97;100.00;99156.06;5175565;27;20054;-57
2022/08/12 04:46:13;;;;;;;7.38;2.47;;;;;;;24.25;100.00;99204.63;5175971;27;20082;-57
2022/08/12 04:48:39;;;;;;;6.28;2.13;;;;;;;24.30;100.00;99215.25;5175526;27;20134;-58
2022/08/12 04:51:06;;;;;;;2.75;1.90;;;;;;;24.50;100.00;99178.50;5175561;27;20042;-57
2022/08/12 04:53:32;;;;;;;4.95;1.98;;;;;;;24.74;100.00;99220.81;5175191;27;20448;-57
2022/08/12 04:55:59;;;;;;;5.07;1.92;;;;;;;25.28;100.00;99256.72;5175411;27;20050;-57
2022/08/12 04:58:26;;;;;;;8.23;2.15;;;;;;;25.30;100.00;99236.63;5175174;27;20054;-57
2022/08/12 05:00:52;;;;;;;3.67;1.83;;;;;;;25.13;100.00;99289.41;5175417;27;20211;-58
2022/08/12 05:03:19;;;;;;;3.28;1.90;;;;;;;24.30;100.00;99283.28;5175018;27;20053;-58
2022/08/12 05:05:45;;;;;;;4.43;1.85;;;;;;;25.10;100.00;99307.91;5175000;27;20492;-58
2022/08/12 05:08:12;;;;;;;3.95;1.73;;;;;;;25.61;100.00;99346.00;5174948;27;20061;-58
2022/08/12 05:10:39;;;;;;;2.10;1.70;;;;;;;24.79;100.00;99319.13;5174890;27;20564;-58
2022/08/12 05:13:09;;;;;;;4.57;1.77;;;;;;;25.65;100.00;99326.97;5174946;27;20082;-58
2022/08/12 05:15:37;;;;;;;2.00;1.58;;;;;;;25.93;100.00;99397.31;5174908;27;20046;-58
2022/08/12 05:18:04;;;;;;;3.60;1.55;;;;;;;26.49;100.00;99413.00;5175195;27;20065;-58
2022/08/12 05:20:30;;;;;;;2.92;1.58;;;;;;;25.56;100.00;99408.38;5174824;27;20501;-58
2022/08/12 05:23:07;;;;;;;3.15;1.75;;;;;;;25.56;100.00;99389.50;5175086;27;20492;-59
2022/08/12 05:25:34;;;;;;;6.80;1.50;;;;;;;25.78;100.00;99374.59;5174784;27;20436;-59
2022/08/12 05:28:00;;;;;;;2.20;1.42;;;;;;;26.18;100.00;99385.00;5174786;27;20042;-58
2022/08/12 05:30:29;;;;;;;4.70;1.70;;;;;;;25.83;100.00;99387.28;5174620;27;20050;-58
2022/08/12 05:32:56;;;;;;;6.35;1.65;;;;;;;25.73;100.00;99395.66;5174486;27;20137;-58
2022/08/12 05:35:23;;;;;;;6.00;1.70;;;;;;;26.96;100.00;99414.56;5175071;27;20056;-58
2022/08/12 05:38:54;;;;;;;6.65;2.38;;;;;;;26.74;100.00;99438.00;5174650;27;20132;-58
2022/08/12 05:40:36;;;;;;;3.08;1.60;;;;;;;26.88;100.00;99430.19;5174439;27;20046;-59
2022/08/12 05:43:02;;;;;;;2.25;1.40;;;;;;;27.56;100.00;99461.66;5174514;27;20474;-58
2022/08/12 05:45:29;;;;;;;9.68;1.70;;;;;;;27.49;100.00;99486.53;5174882;27;20046;-59
2022/08/12 05:47:55;;;;;;;4.05;1.48;;;;;;;27.16;100.00;99473.19;5174260;27;20057;-59
2022/08/12 05:50:21;;;;;;;3.92;1.50;;;;;;;27.55;100.00;99485.44;5174396;27;20074;-59
2022/08/12 05:52:48;;;;;;;7.63;1.85;;;;;;;27.69;100.00;99465.06;5174080;27;20056;-59
2022/08/12 05:55:14;;;;;;;4.90;1.65;;;;;;;27.50;100.00;99490.94;5174348;27;20157;-59
2022/08/12 05:57:40;;;;;;;5.68;2.40;;;;;;;27.70;100.00;99468.66;5174175;27;20060;-59
2022/08/12 06:00:07;;;;;;;4.47;1.90;;;;;;;27.03;100.00;99455.66;5174035;27;20064;-58
2022/08/12 06:02:35;;;;;;;7.72;2.33;;;;;;;27.71;100.00;99463.78;5174051;27;20569;-59
2022/08/12 06:05:01;;;;;;;4.15;1.90;;;;;;;28.24;100.00;99475.31;5174139;27;20046;-59
2022/08/12 06:07:27;;;;;;;5.65;1.70;;;;;;;27.59;100.00;99465.53;5174187;27;20046;-59
2022/08/12 06:09:55;;;;;;;5.93;1.90;;;;;;;28.36;100.00;99482.75;5174048;27;20054;-59
2022/08/12 06:12:22;;;;;;;4.50;1.60;;;;;;;28.47;100.00;99512.50;5174290;27;20043;-59
2022/08/12 06:14:48;;;;;;;3.30;1.77;;;;;;;28.25;100.00;99509.91;5173736;27;20046;-59
2022/08/12 06:17:16;;;;;;;3.80;1.60;;;;;;;28.64;100.00;99502.34;5174269;27;20051;-59
2022/08/12 06:19:42;;;;;;;4.30;1.60;;;;;;;27.78;100.00;99514.97;5173931;27;20046;-59
2022/08/12 06:22:10;;;;;;;7.22;1.77;;;;;;;28.41;100.00;99549.00;5174015;27;20054;-59
2022/08/12 06:24:37;;;;;;;3.42;1.60;;;;;;;27.90;100.00;99536.53;5173881;27;20077;-59
2022/08/12 06:27:03;;;;;;;3.97;1.58;;;;;;;28.88;100.00;99519.25;5173667;27;20050;-59
2022/08/12 06:29:29;;;;;;;6.78;1.50;;;;;;;27.72;100.00;99518.88;5173889;27;20773;-59
2022/08/12 06:31:56;;;;;;;4.05;1.63;;;;;;;28.77;100.00;99496.44;5173750;27;20362;-59
2022/08/12 06:34:22;;;;;;;2.22;1.55;;;;;;;28.02;100.00;99512.19;5174016;27;20068;-59
2022/08/12 06:36:49;;;;;;;2.42;1.60;;;;;;;28.71;100.00;99530.19;5173763;27;20050;-58
2022/08/12 06:39:15;;;;;;;7.32;1.85;;;;;;;28.55;100.00;99516.50;5173820;27;20050;-58
2022/08/12 06:44:26;;;;;;;6.40;2.13;;;;;;;27.92;100.00;99499.41;5173307;27;20528;-58
2022/08/12 06:46:53;;;;;;;2.35;1.50;;;;;;;27.84;100.00;99501.03;5173321;27;20496;-58
2022/08/12 06:49:19;;;;;;;4.70;1.80;;;;;;;27.91;100.00;99506.31;5173292;27;20074;-58
2022/08/12 06:51:45;;;;;;;3.97;1.60;;;;;;;28.15;100.00;99506.34;5173254;27;20052;-59
2022/08/12 06:54:12;;;;;;;6.97;2.20;;;;;;;27.81;100.00;99459.72;5173158;27;20056;-58
2022/08/12 06:56:38;;;;;;;4.57;2.00;;;;;;;28.26;100.00;99497.41;5173228;27;20054;-58
2022/08/12 06:59:05;;;;;;;4.35;1.80;;;;;;;28.88;100.00;99524.09;5173202;27;20046;-58
2022/08/12 07:01:31;;;;;;;5.00;1.70;;;;;;;28.26;100.00;99503.81;5173242;27;20086;-58
2022/08/12 07:03:57;;;;;;;9.65;1.50;;;;;;;29.45;100.00;99516.25;5172689;27;20057;-59
2022/08/12 07:06:24;;;;;;;4.70;1.70;;;;;;;29.03;100.00;99517.28;5172915;27;20088;-58
2022/08/12 07:08:50;;;;;;;10.05;2.03;;;;;;;28.87;100.00;99534.63;5172881;27;20046;-58
2022/08/12 07:11:17;;;;;;;7.40;1.75;;;;;;;29.13;100.00;99506.69;5172896;27;20412;-58
2022/08/12 07:13:45;;;;;;;3.33;1.65;;;;;;;28.58;100.00;99529.66;5172731;27;20223;-59
2022/08/12 07:16:14;;;;;;;14.75;2.45;;;;;;;29.29;100.00;99545.75;5172882;27;20139;-59
2022/08/12 07:18:41;;;;;;;4.82;1.63;;;;;;;28.99;100.00;99518.69;5172689;27;20088;-58
2022/08/12 07:21:08;;;;;;;10.98;2.03;;;;;;;29.93;100.00;99529.41;5172359;27;20046;-59
2022/08/12 07:23:36;;;;;;;5.65;1.70;;;;;;;29.11;100.00;99568.47;5172506;27;20522;-59
2022/08/12 07:26:05;;;;;;;4.93;1.60;;;;;;;29.17;100.00;99560.13;5172477;27;20049;-59
2022/08/12 07:28:35;;;;;;;3.60;1.48;;;;;;;28.63;100.00;99539.50;5172624;27;20042;-58
2022/08/12 07:31:03;;;;;;;1.75;1.40;;;;;;;29.57;100.00;99539.06;5172830;27;20446;-61
2022/08/12 07:33:31;;;;;;;2.10;1.55;;;;;;;29.70;100.00;99588.38;5172423;27;20046;-62
2022/08/12 07:36:01;;;;;;;3.08;1.60;;;;;;;29.55;100.00;99553.66;5172966;27;20493;-59
2022/08/12 07:38:32;;;;;;;12.40;2.30;;;;;;;30.00;100.00;99543.94;5172728;27;20532;-61
2022/08/12 07:41:02;;;;;;;3.88;1.50;;;;;;;29.37;100.00;99562.31;5172846;27;20046;-61
2022/08/12 07:43:30;;;;;;;4.93;1.63;;;;;;;29.50;100.00;99574.13;5172221;27;20054;-62
2022/08/12 07:45:58;;;;;;;3.47;1.50;;;;;;;29.07;100.00;99543.25;5172455;27;20483;-62
2022/08/12 07:48:26;;;;;;;4.65;1.42;;;;;;;29.72;100.00;99563.25;5172402;27;20046;-60
2022/08/12 07:50:53;;;;;;;5.00;2.22;;;;;;;29.62;100.00;99561.00;5172279;27;20074;-63
2022/08/12 07:53:20;;;;;;;4.53;1.63;;;;;;;29.92;100.00;99587.97;5172334;27;20054;-62
2022/08/12 07:55:46;;;;;;;6.30;1.70;;;;;;;30.04;100.00;99586.13;5172289;27;20089;-62
2022/08/12 07:58:13;;;;;;;2.67;1.80;;;;;;;30.44;100.00;99579.06;5172249;27;20050;-62
2022/08/12 08:00:39;;;;;;;9.98;2.17;;;;;;;30.22;100.00;99602.13;5172085;27;20105;-61
2022/08/12 08:03:07;;;;;;;3.85;1.60;;;;;;;29.75;100.00;99590.50;5172590;27;20146;-59
2022/08/12 08:05:38;;;;;;;5.97;1.60;;;;;;;29.04;100.00;99555.53;5172142;27;20072;-59
2022/08/12 08:08:15;;;;;;;7.68;1.50;;;;;;;29.36;100.00;99566.38;5172677;27;20476;-57
2022/08/12 08:10:41;;;;;;;1.60;1.50;;;;;;;30.05;100.00;99587.69;5171863;27;20479;-58
2022/08/12 08:13:10;;;;;;;3.53;1.63;;;;;;;30.05;100.00;99576.38;5172106;27;20509;-60
2022/08/12 08:15:38;;;;;;;3.28;1.45;;;;;;;30.66;100.00;99584.28;5172131;27;20050;-58
2022/08/12 08:18:07;;;;;;;4.70;1.30;;;;;;;29.08;100.00;99553.28;5175237;27;20095;-58
2022/08/12 08:20:36;;;;;;;4.40;1.60;;;;;;;30.47;100.00;99597.88;5176017;27;20050;-62
2022/08/12 08:23:06;;;;;;;6.60;1.80;;;;;;;30.86;100.00;99597.69;5175905;27;20050;-62
2022/08/12 08:25:37;;;;;;;3.38;1.40;;;;;;;29.91;100.00;99583.59;5175775;27;20102;-59
2022/08/12 08:28:08;;;;;;;5.68;1.48;;;;;;;30.07;100.00;99570.25;5175800;27;20685;-61
2022/08/12 08:30:37;;;;;;;4.63;1.65;;;;;;;29.44;100.00;99576.06;5176286;27;20050;-61
2022/08/12 08:33:04;;;;;;;7.95;1.40;;;;;;;30.31;100.00;99561.63;5175654;27;20047;-58
2022/08/12 08:35:31;;;;;;;4.60;1.30;;;;;;;29.85;100.00;99576.28;5175706;27;20050;-57
2022/08/12 08:38:07;;;;;;;2.20;1.15;;;;;;;29.52;100.00;99565.91;5175497;27;20505;-61
2022/08/12 08:43:20;;;;;;;1.88;1.20;;;;;;;30.09;100.00;99551.53;5175490;27;20069;-59
2022/08/12 08:45:47;;;;;;;3.10;1.10;;;;;;;30.80;100.00;99557.22;5175312;27;20560;-60
2022/08/12 08:48:13;;;;;;;3.10;1.20;;;;;;;29.75;100.00;99536.81;5175459;27;20545;-57
2022/08/12 08:50:40;;;;;;;2.55;1.05;;;;;;;30.07;100.00;99558.94;5174408;27;20046;-61
2022/08/12 08:53:16;;;;;;;1.17;1.05;;;;;;;29.99;100.00;99531.06;5175035;27;20094;-65
2022/08/12 08:55:43;;;;;;;4.82;1.17;;;;;;;29.13;100.00;99534.13;5175507;27;20053;-61
2022/08/12 08:58:10;;;;;;;2.40;1.08;;;;;;;29.34;100.00;99529.41;5174538;27;20086;-61
2022/08/12 09:00:38;;;;;;;2.47;1.13;;;;;;;30.34;100.00;99547.28;5175022;27;20050;-63
2022/08/12 09:03:05;;;;;;;1.90;1.05;;;;;;;30.35;100.00;99546.00;5174854;27;20054;-58
2022/08/12 09:05:32;;;;;;;4.40;1.10;;;;;;;29.84;100.00;99550.06;5174403;27;20046;-61
2022/08/12 09:08:00;;;;;;;1.38;1.00;;;;;;;29.58;100.00;99524.44;5174823;27;20077;-62
2022/08/12 09:10:27;;;;;;;1.90;1.20;;;;;;;30.23;100.00;99552.78;5175169;27;20145;-62
2022/08/12 09:15:39;;;;;;;6.13;1.27;;;;;;;30.38;100.00;99547.09;5154333;27;20103;-54
2022/08/12 09:18:07;;;;;;;2.25;1.15;;;;;;;30.31;100.00;99536.97;5154324;27;20145;-56
2022/08/12 09:20:34;;;;;;;4.55;1.20;;;;;;;30.75;100.00;99540.91;5153821;27;20531;-58
2022/08/12 09:23:04;;;;;;;5.00;1.10;;;;;;;30.68;100.00;99542.09;5154079;27;20057;-58
2022/08/12 09:25:32;;;;;;;5.10;1.38;;;;;;;30.82;100.00;99546.94;5153921;27;20139;-59
2022/08/12 09:27:59;;;;;;;3.03;1.30;;;;;;;31.24;100.00;99548.47;5153388;27;20146;-57
2022/08/12 09:30:29;;;;;;;2.17;1.38;;;;;;;31.39;100.00;99554.84;5153707;27;20138;-58
2022/08/12 09:32:56;;;;;;;6.65;1.50;;;;;;;30.78;100.00;99542.75;5154128;27;20564;-57
2022/08/12 09:35:25;;;;;;;2.47;1.20;;;;;;;30.88;100.00;99561.94;5153998;27;20049;-57
2022/08/12 09:37:53;;;;;;;2.30;1.20;;;;;;;30.30;100.00;99518.44;5153837;27;20421;-58
2022/08/12 09:40:20;;;;;;;1.83;1.20;;;;;;;30.41;100.00;99520.66;5153607;27;20046;-57
2022/08/12 09:45:32;;;;;;;3.25;1.30;;;;;;;28.69;100.00;99506.53;5153977;27;20065;-57
2022/08/12 09:48:02;;;;;;;1.73;1.40;;;;;;;29.51;100.00;99500.19;5153818;27;20043;-57
2022/08/12 09:50:29;;;;;;;6.38;1.40;;;;;;;30.26;100.00;99509.41;5153236;27;20086;-57
2022/08/12 09:53:06;;;;;;;2.80;1.50;;;;;;;29.70;100.00;99509.25;5153404;27;20158;-57
2022/08/12 09:55:34;;;;;;;4.13;1.70;;;;;;;30.50;100.00;99495.06;5153690;27;20083;-57
2022/08/12 09:58:01;;;;;;;6.90;2.38;;;;;;;30.65;100.00;99524.03;5153351;27;20486;-57
2022/08/12 10:00:27;;;;;;;4.68;1.65;;;;;;;30.23;100.00;99490.56;5153301;27;20095;-56
2022/08/12 10:03:02;;;;;;;2.03;1.40;;;;;;;30.15;100.00;99512.00;5153093;27;20127;-57
2022/08/12 10:05:32;;;;;;;4.10;1.13;;;;;;;30.53;100.00;99518.75;5153477;27;20053;-55
2022/08/12 10:07:59;;;;;;;3.17;1.23;;;;;;;29.57;100.00;99483.34;5153265;27;20493;-58
2022/08/12 10:10:25;;;;;;;3.15;1.50;;;;;;;29.67;100.00;99492.50;5152970;27;20489;-57
2022/08/12 10:15:43;;;;;;;3.13;1.40;;;;;;;29.77;100.00;99454.41;5153238;27;20050;-57
2022/08/12 10:18:10;;;;;;;3.67;1.45;;;;;;;29.88;100.00;99457.38;5152919;27;20076;-56
2022/08/12 10:20:37;;;;;;;8.68;1.70;;;;;;;29.60;100.00;99450.53;5152768;27;20103;-56
2022/08/12 10:23:04;;;;;;;3.22;1.20;;;;;;;29.51;100.00;99479.63;5153243;27;20493;-57
2022/08/12 10:31:01;;;;;;;4.40;1.48;;;;;;;28.95;100.00;99442.66;5153420;27;20537;-56
2022/08/12 10:33:29;;;;;;;1.90;1.17;;;;;;;29.07;100.00;99412.66;5152867;27;20046;-56
2022/08/12 10:35:56;;;;;;;5.72;1.88;;;;;;;28.57;100.00;99385.03;5153041;27;20053;-58
2022/08/12 10:38:23;;;;;;;10.25;1.50;;;;;;;28.48;100.00;99370.22;5153053;27;20047;-55
2022/08/12 10:43:43;;;;;;;4.72;1.60;;;;;;;27.92;100.00;99364.97;5152700;27;20091;-56
2022/08/12 10:46:16;;;;;;;4.43;1.23;;;;;;;28.68;100.00;99366.75;5152444;27;20565;-57
2022/08/12 10:48:46;;;;;;;3.53;1.60;;;;;;;28.74;100.00;99367.66;5152849;27;20454;-57
2022/08/12 10:51:13;;;;;;;2.83;1.90;;;;;;;28.67;100.00;99376.50;5152482;27;20067;-57
2022/08/12 10:53:40;;;;;;;4.80;1.40;;;;;;;28.53;100.00;99344.97;5152198;27;20055;-56
2022/08/12 10:56:07;;;;;;;3.15;1.40;;;;;;;28.04;100.00;99314.47;5152335;27;20043;-57
2022/08/12 10:58:35;;;;;;;5.22;1.73;;;;;;;28.50;100.00;99323.38;5152565;27;20042;-56
2022/08/12 11:01:04;;;;;;;6.15;1.67;;;;;;;28.83;100.00;99359.09;5152365;27;20078;-56
2022/08/12 11:03:33;;;;;;;4.97;1.63;;;;;;;28.79;100.00;99366.94;5152149;27;20452;-55
2022/08/12 11:05:59;;;;;;;5.63;1.92;;;;;;;28.54;100.00;99359.84;5152139;27;20062;-57
2022/08/12 11:08:26;;;;;;;5.97;1.45;;;;;;;28.35;100.00;99350.72;5152087;27;20049;-56
2022/08/12 11:10:52;;;;;;;4.38;1.50;;;;;;;28.05;100.00;99344.22;5152142;27;20074;-56
2022/08/12 11:13:20;;;;;;;5.72;1.98;;;;;;;27.87;100.00;99329.00;5152033;27;20077;-57
2022/08/12 11:15:47;;;;;;;5.35;1.60;;;;;;;27.57;100.00;99318.84;5152100;27;20093;-56
2022/08/12 11:18:14;;;;;;;5.38;1.77;;;;;;;27.73;100.00;99320.47;5152063;27;20137;-55
2022/08/12 11:20:40;;;;;;;4.15;1.70;;;;;;;27.36;100.00;99318.63;5152131;27;20078;-56
2022/08/12 11:23:07;;;;;;;5.45;1.52;;;;;;;27.33;100.00;99327.25;5151881;27;20050;-59
2022/08/12 11:25:33;;;;;;;3.95;1.88;;;;;;;27.42;100.00;99304.66;5151845;27;20141;-57
2022/08/12 11:27:59;;;;;;;2.45;1.77;;;;;;;27.42;100.00;99308.28;5151952;27;20057;-55
2022/08/12 11:30:25;;;;;;;3.15;1.65;;;;;;;27.40;100.00;99293.13;5152141;27;20053;-56
2022/08/12 11:32:52;;;;;;;5.15;1.70;;;;;;;27.59;100.00;99277.69;5151668;27;20050;-56
2022/08/12 11:35:19;;;;;;;4.18;1.63;;;;;;;27.56;100.00;99306.78;5151942;27;20042;-56
2022/08/12 11:37:46;;;;;;;5.20;1.65;;;;;;;27.25;100.00;99329.59;5151633;27;20137;-54
2022/08/12 11:40:12;;;;;;;3.50;1.95;;;;;;;27.28;100.00;99292.06;5151408;27;20102;-56
2022/08/12 11:42:38;;;;;;;5.53;1.85;;;;;;;27.42;100.00;99302.66;5151646;27;20070;-56
2022/08/12 11:45:05;;;;;;;8.73;2.20;;;;;;;27.63;100.00;99271.88;5151762;27;20054;-59
2022/08/12 11:47:31;;;;;;;2.13;1.70;;;;;;;27.19;100.00;99286.47;5151937;27;20073;-56
2022/08/12 11:49:58;;;;;;;5.78;1.83;;;;;;;27.24;100.00;99254.09;5151398;27;20049;-55
2022/08/12 11:52:24;;;;;;;5.60;1.42;;;;;;;27.17;100.00;99249.59;5151497;27;20429;-56
2022/08/12 11:54:51;;;;;;;2.42;1.60;;;;;;;27.23;100.00;99256.16;5151528;27;20053;-57
2022/08/12 11:57:17;;;;;;;4.45;1.60;;;;;;;27.17;100.00;99255.22;5151629;27;20050;-57
2022/08/12 11:59:43;;;;;;;3.30;1.70;;;;;;;27.16;100.00;99270.56;5151395;27;20057;-56
2022/08/12 12:02:09;;;;;;;4.07;1.50;;;;;;;26.79;100.00;99265.06;5151739;27;20596;-55
2022/08/12 12:04:36;;;;;;;2.67;1.73;;;;;;;26.78;100.00;99237.38;5151319;27;20050;-57
2022/08/12 12:07:03;;;;;;;3.90;1.45;;;;;;;27.04;100.00;99216.03;5151419;27;20149;-56
2022/08/12 12:09:29;;;;;;;5.20;1.60;;;;;;;27.25;100.00;99214.22;5151331;27;20420;-55
2022/08/12 12:11:55;;;;;;;2.58;1.90;;;;;;;27.06;100.00;99254.91;5151472;27;20135;-57
2022/08/12 12:14:21;;;;;;;1.77;1.55;;;;;;;27.06;100.00;99247.28;5151187;27;20050;-58
2022/08/12 12:16:48;;;;;;;5.80;1.50;;;;;;;27.01;100.00;99253.53;5151359;27;20065;-55
2022/08/12 12:19:16;;;;;;;6.45;1.55;;;;;;;26.74;100.00;99248.81;5151319;27;20184;-57
2022/08/12 12:21:42;;;;;;;3.38;1.70;;;;;;;26.89;100.00;99229.19;5151057;27;20519;-56
2022/08/12 12:24:09;;;;;;;3.90;1.60;;;;;;;27.05;100.00;99222.41;5151230;27;20519;-56
2022/08/12 12:26:35;;;;;;;5.28;2.08;;;;;;;26.81;100.00;99233.63;5151068;27;20050;-57
2022/08/12 12:29:02;;;;;;;4.60;1.60;;;;;;;26.97;100.00;99252.94;5151323;27;20047;-54
2022/08/12 12:31:28;;;;;;;4.72;1.52;;;;;;;27.01;100.00;99200.09;5150950;27;20078;-57
2022/08/12 12:33:54;;;;;;;4.72;1.45;;;;;;;26.92;100.00;99226.22;5150962;27;20050;-57
2022/08/12 12:36:21;;;;;;;4.53;1.70;;;;;;;27.32;100.00;99258.88;5150961;27;20145;-57
2022/08/12 12:38:47;;;;;;;4.72;1.70;;;;;;;26.76;100.00;99268.81;5151133;27;20043;-54
2022/08/12 12:41:14;;;;;;;4.15;1.60;;;;;;;26.86;100.00;99244.25;5151495;27;20046;-57
2022/08/12 12:43:40;;;;;;;3.70;1.65;;;;;;;27.16;100.00;99242.44;5151202;27;20161;-54
2022/08/12 12:46:06;;;;;;;2.50;1.60;;;;;;;27.02;100.00;99231.81;5151306;27;20046;-56
2022/08/12 12:48:33;;;;;;;7.45;1.70;;;;;;;27.14;100.00;99239.28;5150762;27;20497;-56
2022/08/12 12:53:43;;;;;;;4.90;1.80;;;;;;;26.90;100.00;99225.94;5148017;27;20051;-56
2022/08/12 12:56:15;;;;;;;2.75;1.70;;;;;;;26.81;100.00;99197.06;5150824;27;20622;-56
2022/08/12 12:58:42;;;;;;;8.13;1.60;;;;;;;26.77;100.00;99225.38;5150751;27;20078;-56
2022/08/12 13:01:08;;;;;;;4.32;1.60;;;;;;;26.94;100.00;99209.66;5150559;27;20501;-55
2022/08/12 13:03:34;;;;;;;5.10;1.70;;;;;;;27.04;100.00;99213.22;5152661;27;20501;-57
2022/08/12 13:06:01;;;;;;;8.40;2.10;;;;;;;27.12;100.00;99217.22;5154460;27;20050;-54
2022/08/12 13:08:29;;;;;;;5.88;1.77;;;;;;;26.50;100.00;99209.38;5153909;27;20058;-56
2022/08/12 13:10:59;;;;;;;6.18;1.40;;;;;;;26.97;100.00;99205.91;5154182;27;20133;-56